Lynchburg, VA (24503)

6:24 PM EDT on July 29, 2016 (GMT -0400)
Royal Oaks | | Change Station

Elev 800 ft 37.45 °N, 79.23 °W | Updated 1 minute ago

Scattered Clouds
Scattered Clouds
84.4 °F
Feels Like 90 °F
N
0.6
Wind Variable Wind from SW
Gusts 1.2 mph

Today
High -- | Low -- °F
--% Chance of Precip.
Yesterday
High -- | Low -- °F
Precip. -- in
Pressure 29.92 in
Visibility 10.0 miles
Clouds Few 3800 ft
Scattered Clouds 5500 ft
Scattered Clouds 7500 ft
Heat Index 90 °F
Dew Point 72 °F
Humidity 67%
Rainfall Not available.
Snow Depth Not available.
6:19 AM 8:27 PM
Waning Crescent, 18% visible
METAR KLYH 292154Z 13004KT 10SM FEW038 SCT055 SCT075 29/20 A2995 RMK AO2 SLP131 T02940200
Pressure 29.92 in
Visibility 10.0 miles
Clouds Few 3800 ft
Scattered Clouds 5500 ft
Scattered Clouds 7500 ft
Heat Index 90 °F
Dew Point 72 °F
Humidity 67%
Rainfall Not available.
Snow Depth Not available.
6:19 AM 8:27 PM
Waning Crescent, 18% visible
METAR KLYH 292154Z 13004KT 10SM FEW038 SCT055 SCT075 29/20 A2995 RMK AO2 SLP131 T02940200

10-Day Weather Forecast

Almanac

Astronomy

Jul. 29, 2016 Rise Set
Actual Time
Civil Twilight
Nautical Twilight
Astronomical Twilight
Moon
Length of Visible Light
Length of Day
Tomorrow will be .
, % of the Moon is Illuminated

Today's Extremes

State Highs State Lows

Community

WunderPhotos

Upload Photos

1,928,436 photos uploaded!

WunderBlog® & News

Nearby

Air Quality

  Air Quality AQ Index Pollutant
Not available.

Snow Depth

Station Depth Elevation

Earthquake Activity

City Distance Mag. Time & Date
Minimum magnitude displayed is 2.5.

Coastal Water Temperatures

Place Temperature

Stations

Nearby Weather Stations

Station Location Temp. Windchill Dew Point Humidity Wind Precip. Elev Updated Type
                   

Watches & Warnings

There are currently no watches in effect.